Terminal Aerodrome Forecast
Issued by NWS Twin Cities, MN

Home | Current Version | Previous Version | Graphics & Text | Print | Product List | Glossary On
Versions: 1 2 3 4 5 6 7 8 9 10 11 12 13 14 15 16 17 18 19 20 21 22 23
000
FTUS43 KMPX 282300
TAFEAU
TAF
KEAU 282337Z 2900/2924 21005KT P6SM SCT060 BKN250
     FM290800 27004KT P6SM BKN060
     FM291100 36004KT 4SM BR BKN025 OVC050
     FM291400 03010KT P6SM VCSH BKN012 OVC025
     FM292100 04008KT P6SM BKN035=

USA.gov is the U.S. government's official web portal to all federal, state and local government web resources and services.